createdAt,value
2023-01-28T00:00:31.296Z,100612.69
2023-01-28T00:01:33.177Z,100610.13
2023-01-28T03:52:34.882Z,100548.36
2023-01-28T03:53:38.504Z,100549.08
2023-01-28T03:54:40.628Z,100546.50
2023-01-28T03:55:47.222Z,100555.17
2023-01-28T03:56:49.231Z,100548.28
2023-01-28T03:57:51.110Z,100557.84
2023-01-28T03:58:52.995Z,100557.06
2023-01-28T03:59:54.977Z,100553.67
2023-01-28T04:00:57.106Z,100555.45
2023-01-28T04:02:00.233Z,100557.20
2023-01-28T04:03:02.278Z,100556.45
2023-01-28T04:04:04.312Z,100549.50
2023-01-28T04:05:08.277Z,100559.76
2023-01-28T04:06:10.946Z,100554.67
2023-01-28T04:07:13.611Z,100550.38
2023-01-28T04:08:15.487Z,100552.99
2023-01-28T04:09:17.704Z,100563.34
2023-01-28T04:10:20.097Z,100553.02
2023-01-28T04:11:22.178Z,100562.48
2023-01-28T04:12:24.613Z,100565.13
2023-01-28T04:13:26.634Z,100571.22
2023-01-28T04:14:29.029Z,100568.68
2023-01-28T04:15:31.336Z,100575.60
2023-01-28T04:16:33.417Z,100571.25
2023-01-28T04:17:35.278Z,100572.14
2023-01-28T04:18:37.571Z,100570.48
2023-01-28T04:19:39.485Z,100578.17
2023-01-28T04:20:41.978Z,100581.66
2023-01-28T04:21:43.854Z,100578.17
2023-01-28T04:22:45.728Z,100571.22
2023-01-28T04:23:47.602Z,100573.03
2023-01-28T04:24:49.540Z,100573.08
2023-01-28T04:25:52.243Z,100581.66
2023-01-28T04:26:56.211Z,100572.20
2023-01-28T04:27:58.233Z,100576.52
2023-01-28T04:29:01.374Z,100576.53
2023-01-28T04:30:05.785Z,100576.36
2023-01-28T04:31:08.002Z,100582.49
2023-01-28T04:32:11.696Z,100583.35
2023-01-28T04:33:14.043Z,100582.55
2023-01-28T04:34:15.964Z,100585.94
2023-01-28T04:35:20.372Z,100583.33
2023-01-28T04:36:22.987Z,100587.56
2023-01-28T04:37:24.887Z,100584.16
2023-01-28T04:38:28.238Z,100582.46
2023-01-28T04:39:30.180Z,100584.25
2023-01-28T04:40:32.381Z,100582.58
2023-01-28T04:41:35.555Z,100585.09
2023-01-28T04:42:38.335Z,100580.77
2023-01-28T04:43:40.464Z,100578.20
2023-01-28T04:44:42.474Z,100584.27
2023-01-28T04:45:44.790Z,100582.56
2023-01-28T04:46:46.930Z,100592.84
2023-01-28T04:47:51.079Z,100592.86
2023-01-28T04:48:53.069Z,100585.09
2023-01-28T04:49:55.127Z,100591.11
2023-01-28T04:50:57.507Z,100583.31
2023-01-28T04:51:59.717Z,100585.03
2023-01-28T04:53:01.786Z,100583.35
2023-01-28T04:54:05.955Z,100587.69
2023-01-28T04:55:08.880Z,100587.69
2023-01-28T04:56:11.377Z,100593.73
2023-01-28T04:57:13.856Z,100594.61
2023-01-28T04:58:15.880Z,100593.70
2023-01-28T04:59:17.766Z,100597.20
2023-01-28T05:00:20.313Z,100598.91
2023-01-28T05:01:22.352Z,100597.23
2023-01-28T05:02:24.432Z,100599.02
2023-01-28T05:03:27.142Z,100598.95
2023-01-28T05:04:29.028Z,100594.66
2023-01-28T05:05:30.923Z,100600.72
2023-01-28T05:06:33.198Z,100605.75
2023-01-28T05:07:37.011Z,100605.75
2023-01-28T05:08:39.035Z,100611.08
2023-01-28T05:09:40.908Z,100618.72
2023-01-28T05:10:43.198Z,100608.39
2023-01-28T05:11:45.106Z,100617.06
2023-01-28T05:12:49.292Z,100608.16
2023-01-28T05:13:51.235Z,100613.44
2023-01-28T05:14:53.109Z,100619.48
2023-01-28T05:15:55.037Z,100614.15
2023-01-28T05:16:58.024Z,100612.36
2023-01-28T05:18:00.591Z,100610.73
2023-01-28T05:19:03.577Z,100614.33
2023-01-28T05:20:06.861Z,100613.41
2023-01-28T05:21:09.030Z,100614.41
2023-01-28T05:22:11.266Z,100607.52
2023-01-28T05:23:13.383Z,100610.10
2023-01-28T05:24:15.425Z,100604.12
2023-01-28T05:25:17.772Z,100606.66
2023-01-28T05:26:20.454Z,100602.20
2023-01-28T05:27:22.957Z,100601.98
2023-01-28T05:28:24.856Z,100608.12
2023-01-28T05:29:26.736Z,100577.83
2023-01-28T05:30:28.882Z,100603.00
2023-01-28T05:31:30.899Z,100602.16
2023-01-28T05:32:33.201Z,100600.43
2023-01-28T05:33:35.183Z,100600.52
2023-01-28T05:34:37.782Z,100601.34
2023-01-28T05:35:39.786Z,100598.77
2023-01-28T05:36:41.804Z,100604.73
2023-01-28T05:37:43.881Z,100602.20
2023-01-28T05:38:45.922Z,100603.02
2023-01-28T05:39:47.805Z,100604.73
2023-01-28T05:40:49.885Z,100603.91
2023-01-28T05:41:51.954Z,100603.88
2023-01-28T05:42:53.919Z,100605.63
2023-01-28T05:43:55.796Z,100607.38
2023-01-28T05:44:57.714Z,100603.04
2023-01-28T05:46:00.286Z,100604.75
2023-01-28T05:47:02.622Z,100602.16
2023-01-28T05:48:04.883Z,100597.81
2023-01-28T05:49:06.867Z,100596.87
2023-01-28T05:50:13.573Z,100600.38
2023-01-28T05:51:16.342Z,100602.87
2023-01-28T05:52:18.343Z,100598.67
2023-01-28T05:53:21.000Z,100605.55
2023-01-28T05:54:22.945Z,100594.34
2023-01-28T05:55:25.251Z,100598.52
2023-01-28T05:56:27.547Z,100599.37
2023-01-28T05:57:30.767Z,100598.23
2023-01-28T05:58:33.325Z,100592.72
2023-01-28T05:59:36.535Z,100595.45
2023-01-28T06:00:38.600Z,100600.72
2023-01-28T06:01:43.447Z,100607.41
2023-01-28T06:02:45.884Z,100602.19
2023-01-28T06:03:47.914Z,100606.66
2023-01-28T06:04:49.940Z,100606.75
2023-01-28T06:05:51.860Z,100602.02
2023-01-28T06:06:53.959Z,100597.62
2023-01-28T06:07:56.041Z,100605.30
2023-01-28T06:08:58.067Z,100606.19
2023-01-28T06:10:00.184Z,100608.19
2023-01-28T06:11:02.213Z,100602.79
2023-01-28T06:12:05.006Z,100612.09
2023-01-28T06:13:07.090Z,100606.86
2023-01-28T06:14:09.459Z,100604.34
2023-01-28T06:15:13.172Z,100609.61
2023-01-28T06:16:15.477Z,100612.87
2023-01-28T06:17:17.835Z,100609.44
2023-01-28T06:18:19.699Z,100609.47
2023-01-28T06:19:21.591Z,100607.86
2023-01-28T06:20:24.363Z,100604.44
2023-01-28T06:21:28.388Z,100606.05
2023-01-28T06:22:30.169Z,100597.71
2023-01-28T06:23:33.295Z,100601.36
2023-01-28T06:24:35.638Z,100603.11
2023-01-28T06:25:37.507Z,100608.34
2023-01-28T06:26:39.478Z,100596.25
2023-01-28T06:27:41.361Z,100604.86
2023-01-28T06:28:43.548Z,100609.98
2023-01-28T06:29:45.464Z,100604.91
2023-01-28T06:30:49.150Z,100603.98
2023-01-28T06:31:51.547Z,100607.52
2023-01-28T06:32:55.112Z,100606.55
2023-01-28T06:33:57.032Z,100612.64
2023-01-28T06:35:01.992Z,100617.66
2023-01-28T06:36:05.470Z,100611.78
2023-01-28T06:37:07.813Z,100611.55
2023-01-28T06:38:10.991Z,100617.70
2023-01-28T06:39:13.004Z,100616.08
2023-01-28T06:40:15.742Z,100616.86
2023-01-28T06:41:18.595Z,100619.42
2023-01-28T06:42:20.855Z,100623.33
2023-01-28T06:43:23.214Z,100621.75
2023-01-28T06:44:25.333Z,100629.91
2023-01-28T06:45:27.215Z,100628.98
2023-01-28T06:46:29.277Z,100633.42
2023-01-28T06:47:31.555Z,100629.90
2023-01-28T06:48:33.571Z,100630.81
2023-01-28T06:49:36.395Z,100624.76
2023-01-28T06:50:38.440Z,100619.53
2023-01-28T06:51:40.580Z,100624.03
2023-01-28T06:52:42.588Z,100628.43
2023-01-28T06:53:46.196Z,100624.84
2023-01-28T06:54:48.523Z,100628.21
2023-01-28T06:55:50.510Z,100617.12
2023-01-28T06:56:52.629Z,100608.58
2023-01-28T06:57:54.493Z,100613.50
2023-01-28T06:58:56.478Z,100624.74
2023-01-28T06:59:58.353Z,100619.48
2023-01-28T07:01:00.483Z,100620.64
2023-01-28T07:02:02.522Z,100610.47
2023-01-28T07:03:05.081Z,100617.45
2023-01-28T07:04:07.806Z,100622.69
2023-01-28T07:05:10.506Z,100625.20
2023-01-28T07:06:12.492Z,100627.02
2023-01-28T07:07:14.524Z,100621.84
2023-01-28T07:08:16.598Z,100628.72
2023-01-28T07:09:18.705Z,100627.78
2023-01-28T07:10:20.948Z,100629.58
2023-01-28T07:11:22.957Z,100638.32
2023-01-28T07:12:24.940Z,100634.88
2023-01-28T07:13:27.926Z,100635.88
2023-01-28T07:14:30.789Z,100629.00
2023-01-28T07:15:32.772Z,100639.39
2023-01-28T07:16:34.806Z,100629.07
2023-01-28T07:17:41.954Z,100637.75
2023-01-28T07:18:44.122Z,100633.37
2023-01-28T07:19:46.217Z,100634.17
2023-01-28T07:20:48.617Z,100632.55
2023-01-28T07:21:50.542Z,100634.27
2023-01-28T07:22:52.617Z,100637.75
2023-01-28T07:23:54.627Z,100631.63
2023-01-28T07:24:56.626Z,100625.71
2023-01-28T07:26:05.109Z,100623.98
2023-01-28T07:27:07.082Z,100623.21
2023-01-28T07:28:09.885Z,100616.97
2023-01-28T07:29:12.142Z,100584.12
2023-01-28T07:30:16.299Z,100618.86
2023-01-28T07:31:20.137Z,100618.75
2023-01-28T07:32:22.377Z,100610.12
2023-01-28T07:33:24.778Z,100599.86
2023-01-28T07:34:27.679Z,100604.11
2023-01-28T07:35:30.465Z,100600.80
2023-01-28T07:36:32.670Z,100601.78
2023-01-28T07:37:35.832Z,100595.57
2023-01-28T07:38:37.716Z,100612.83
2023-01-28T07:39:39.819Z,100610.23
2023-01-28T07:40:42.048Z,100600.88
2023-01-28T07:41:43.939Z,100607.83
2023-01-28T07:42:46.343Z,100598.30
2023-01-28T07:43:48.233Z,100596.41
2023-01-28T07:44:50.240Z,100598.23
2023-01-28T07:45:52.136Z,100596.48
2023-01-28T07:46:54.407Z,100599.78
2023-01-28T07:48:02.188Z,100599.78
2023-01-28T12:09:42.308Z,100398.32
2023-01-28T12:12:08.865Z,100395.70
2023-01-28T12:13:27.097Z,100397.48
2023-01-28T12:14:39.503Z,100394.87
2023-01-28T12:16:03.721Z,100389.66
2023-01-28T12:17:13.016Z,100386.17
2023-01-28T12:18:21.830Z,100380.11
2023-01-28T12:19:42.298Z,100384.45
2023-01-28T12:21:00.433Z,100386.99
2023-01-28T12:22:21.550Z,100379.16
2023-01-28T12:23:33.527Z,100380.91
2023-01-28T12:24:48.512Z,100383.51
2023-01-28T12:26:00.034Z,100381.77
2023-01-28T12:27:21.036Z,100385.19
2023-01-28T12:28:53.389Z,100381.75
2023-01-28T12:30:20.575Z,100386.09
2023-01-28T12:31:43.147Z,100385.19
2023-01-28T12:33:06.834Z,100390.36
2023-01-28T12:34:21.659Z,100388.66
2023-01-28T12:35:39.358Z,100386.93
2023-01-28T12:36:47.894Z,100386.91
2023-01-28T12:38:03.055Z,100395.58
2023-01-28T12:39:25.678Z,100382.57
2023-01-28T12:40:33.636Z,100383.45
2023-01-28T12:41:40.625Z,100378.30
2023-01-28T12:42:46.526Z,100388.70
2023-01-28T12:44:07.451Z,100385.19
2023-01-28T12:45:22.698Z,100386.93
2023-01-28T12:47:41.739Z,100379.92
2023-01-28T12:48:47.420Z,100373.88
2023-01-28T12:49:56.073Z,100378.24
2023-01-28T12:51:17.327Z,100372.99
2023-01-28T12:52:26.006Z,100383.39
2023-01-28T12:53:31.762Z,100377.32
2023-01-28T12:54:46.223Z,100377.32
2023-01-28T12:55:51.996Z,100374.73
2023-01-28T12:56:55.765Z,100379.06
2023-01-28T12:57:58.758Z,100377.30
2023-01-28T12:59:19.549Z,100374.69
2023-01-28T13:00:28.283Z,100382.45
2023-01-28T13:01:49.609Z,100383.30
2023-01-28T13:02:58.744Z,100380.69
2023-01-28T13:04:10.432Z,100380.66
2023-01-28T13:05:19.173Z,100379.77
2023-01-28T13:06:27.721Z,100369.37
2023-01-28T13:07:39.772Z,100373.72
2023-01-28T13:08:42.959Z,100369.44
2023-01-28T13:09:51.405Z,100372.84
2023-01-28T13:10:56.385Z,100370.24
2023-01-28T13:12:00.290Z,100372.87
2023-01-28T13:13:03.993Z,100360.73
2023-01-28T13:14:07.117Z,100375.46
2023-01-28T13:15:16.079Z,100371.12
2023-01-28T13:16:21.244Z,100371.10
2023-01-28T13:17:31.390Z,100371.14
2023-01-28T13:18:43.087Z,100372.03
2023-01-28T13:19:44.991Z,100363.29
2023-01-28T13:20:50.245Z,100366.73
2023-01-28T13:21:52.779Z,100362.45
2023-01-28T13:23:05.290Z,100371.12
2023-01-28T13:24:16.391Z,100371.12
2023-01-28T13:25:24.568Z,100378.08
2023-01-28T13:27:57.449Z,100374.52
2023-01-28T13:29:18.549Z,100378.05
2023-01-28T13:30:36.148Z,100382.36
2023-01-28T13:31:41.906Z,100376.29
2023-01-28T13:32:47.630Z,100371.06
2023-01-28T13:33:56.572Z,100366.73
2023-01-28T13:35:04.990Z,100375.42
2023-01-28T13:36:20.947Z,100371.95
2023-01-28T13:37:32.745Z,100372.84
2023-01-28T13:38:35.373Z,100376.25
2023-01-28T13:39:37.816Z,100371.91
2023-01-28T13:40:41.744Z,100372.86
2023-01-28T13:41:47.248Z,100380.66
2023-01-28T13:43:04.185Z,100373.73
2023-01-28T13:44:27.120Z,100378.08
2023-01-28T13:45:30.459Z,100380.67
2023-01-28T13:46:32.661Z,100376.33
2023-01-28T13:47:37.348Z,100372.87
2023-01-28T13:48:48.475Z,100369.37
2023-01-28T13:50:00.216Z,100371.13
2023-01-28T13:51:05.067Z,100368.53
2023-01-28T13:52:13.700Z,100367.70
2023-01-28T13:53:43.487Z,100368.56
2023-01-28T13:56:02.536Z,100373.70
2023-01-28T13:57:25.644Z,100373.77
2023-01-28T13:58:53.921Z,100378.09
2023-01-28T14:00:25.900Z,100377.22
2023-01-28T14:01:48.280Z,100381.55
2023-01-28T14:02:54.112Z,100379.03
2023-01-28T14:04:22.714Z,100382.50
2023-01-28T14:05:43.783Z,100382.52
2023-01-28T14:07:04.916Z,100385.97
2023-01-28T14:08:23.012Z,100385.09
2023-01-28T14:09:38.041Z,100379.94
2023-01-28T14:10:59.172Z,100387.74
2023-01-28T14:12:16.989Z,100385.15
2023-01-28T14:13:25.901Z,100377.36
2023-01-28T14:14:52.691Z,100386.91
2023-01-28T14:16:20.995Z,100379.98
2023-01-28T14:17:43.538Z,100377.37
2023-01-28T14:18:48.250Z,100379.95
2023-01-28T14:19:53.080Z,100373.92
2023-01-28T14:20:58.548Z,100373.92
2023-01-28T14:22:09.001Z,100381.74
2023-01-28T14:23:20.968Z,100373.11
2023-01-28T14:24:24.024Z,100381.75
2023-01-28T14:25:49.908Z,100380.86
2023-01-28T14:26:58.810Z,100382.65
2023-01-28T14:28:03.911Z,100373.11
2023-01-28T14:29:27.957Z,100376.57
2023-01-28T14:30:33.792Z,100373.10
2023-01-28T14:31:37.847Z,100379.14
2023-01-28T14:32:46.513Z,100379.17
2023-01-28T14:33:48.724Z,100384.39
2023-01-28T14:34:53.142Z,100375.75
2023-01-28T14:35:56.357Z,100380.95
2023-01-28T14:37:08.192Z,100383.55
2023-01-28T14:38:13.971Z,100374.91
2023-01-28T14:40:38.401Z,100383.55
2023-01-28T14:41:43.735Z,100381.87
2023-01-28T14:42:49.020Z,100378.39
2023-01-28T14:43:54.416Z,100387.09
2023-01-28T14:45:06.185Z,100381.89
2023-01-28T14:46:21.245Z,100386.24
2023-01-28T14:47:45.507Z,100385.36
2023-01-28T14:49:18.433Z,100394.90
2023-01-28T14:50:27.255Z,100389.71
2023-01-28T14:51:53.797Z,100387.13
2023-01-28T14:53:14.750Z,100390.61
2023-01-28T14:56:02.147Z,100381.91
2023-01-28T14:57:13.672Z,100392.32
2023-01-28T14:58:22.672Z,100399.23
2023-01-28T15:00:39.252Z,100398.31
2023-01-28T15:01:45.358Z,100398.35
2023-01-28T15:02:47.984Z,100396.65
2023-01-28T15:03:50.484Z,100402.69
2023-01-28T15:04:53.899Z,100404.44
2023-01-28T15:07:22.746Z,100407.02
2023-01-28T15:08:24.727Z,100407.03
2023-01-28T15:09:26.756Z,100407.05
2023-01-28T15:10:35.747Z,100407.91
2023-01-28T15:11:40.843Z,100410.52
2023-01-28T15:12:56.623Z,100405.30
2023-01-28T15:14:00.285Z,100405.31
2023-01-28T15:15:18.167Z,100410.55
2023-01-28T15:16:23.386Z,100407.95
2023-01-28T15:17:27.531Z,100407.96
2023-01-28T15:18:36.996Z,100407.97
2023-01-28T15:19:40.100Z,100407.97
2023-01-28T15:20:47.934Z,100412.27
2023-01-28T15:21:53.715Z,100409.72
2023-01-28T15:22:56.316Z,100407.13
2023-01-28T15:24:00.284Z,100398.45
2023-01-28T15:25:04.232Z,100407.97
2023-01-28T15:26:21.620Z,100411.42
2023-01-28T15:27:29.483Z,100409.72
2023-01-28T15:28:34.492Z,100412.32
2023-01-28T15:29:37.216Z,100405.39
2023-01-28T15:30:43.191Z,100408.88
2023-01-28T15:31:49.435Z,100408.02
2023-01-28T15:33:03.801Z,100411.47
2023-01-28T15:34:18.092Z,100406.27
2023-01-28T15:35:20.016Z,100405.42
2023-01-28T15:36:22.364Z,100408.02
2023-01-28T15:37:24.918Z,100409.72
2023-01-28T15:38:28.642Z,100410.61
2023-01-28T15:39:30.647Z,100414.94
2023-01-28T15:40:36.394Z,100414.91
2023-01-28T15:41:40.885Z,100412.34
2023-01-28T15:42:46.486Z,100414.94
2023-01-28T15:43:51.524Z,100421.84
2023-01-28T15:44:54.990Z,100415.78
2023-01-28T15:45:59.631Z,100416.67
2023-01-28T15:48:15.693Z,100417.53
2023-01-28T15:49:17.971Z,100422.72
2023-01-28T15:50:22.678Z,100418.38
2023-01-28T15:51:28.466Z,100423.55
2023-01-28T15:52:37.006Z,100428.77
2023-01-28T15:53:48.867Z,100425.29
2023-01-28T15:54:51.930Z,100425.28
2023-01-28T19:51:40.091Z,100474.87
2023-01-28T19:52:42.129Z,100481.68
2023-01-28T19:53:44.975Z,100477.36
2023-01-28T19:54:47.485Z,100492.91
2023-01-28T19:55:52.073Z,100481.72
2023-01-28T19:56:53.604Z,100477.44
2023-01-28T19:57:56.059Z,100481.77
2023-01-28T19:58:57.960Z,100479.19
2023-01-28T19:59:59.971Z,100483.55
2023-01-28T20:02:18.693Z,100478.49
2023-01-28T20:03:20.671Z,100493.98
2023-01-28T20:04:22.569Z,100480.14
2023-01-28T20:05:25.982Z,100490.48
2023-01-28T20:06:30.305Z,100487.94
2023-01-28T20:07:32.339Z,100499.22
2023-01-28T20:08:34.220Z,100485.36
2023-01-28T20:09:36.088Z,100484.50
2023-01-28T20:10:38.100Z,100488.80
2023-01-28T20:11:40.109Z,100497.44
2023-01-28T20:12:42.175Z,100489.64
2023-01-28T20:13:45.658Z,100481.91
2023-01-28T20:14:47.663Z,100480.16
2023-01-28T20:15:49.552Z,100485.36
2023-01-28T20:16:51.614Z,100479.37
2023-01-28T20:17:53.621Z,100482.80
2023-01-28T20:18:58.409Z,100481.05
2023-01-28T20:20:00.302Z,100482.77
2023-01-28T20:21:02.616Z,100487.08
2023-01-28T20:22:04.644Z,100487.91
2023-01-28T20:23:06.699Z,100486.14
2023-01-28T20:24:14.081Z,100490.45
2023-01-28T20:25:16.549Z,100494.75
2023-01-28T20:26:21.887Z,100490.45
2023-01-28T20:27:24.494Z,100490.45
2023-01-28T20:28:27.377Z,100484.36
2023-01-28T20:29:29.287Z,100486.98
2023-01-28T20:30:31.323Z,100491.27
2023-01-28T20:31:33.477Z,100496.44
2023-01-28T20:32:35.715Z,100485.31
2023-01-28T20:33:38.952Z,100489.60
2023-01-28T20:34:40.831Z,100488.73
2023-01-28T20:35:43.939Z,100490.50
2023-01-28T20:36:46.451Z,100492.22
2023-01-28T20:37:48.438Z,100489.55
2023-01-28T20:38:50.998Z,100483.56
2023-01-28T20:39:53.037Z,100488.71
2023-01-28T20:40:55.491Z,100486.94
2023-01-28T20:41:57.384Z,100488.70
2023-01-28T20:42:59.258Z,100493.05
2023-01-28T20:44:01.851Z,100492.12
2023-01-28T20:45:04.962Z,100483.55
2023-01-28T20:46:19.356Z,100493.06
2023-01-28T20:47:21.357Z,100488.71
2023-01-28T20:48:23.327Z,100485.28
2023-01-28T20:49:28.160Z,100485.23
2023-01-28T20:50:30.468Z,100484.35
2023-01-28T20:51:35.839Z,100488.70
2023-01-28T20:52:38.227Z,100486.11
2023-01-28T20:53:41.265Z,100481.75
2023-01-28T20:54:43.159Z,100490.43
2023-01-28T20:55:56.657Z,100483.45
2023-01-28T20:56:58.815Z,100492.91
2023-01-28T20:58:00.676Z,100484.33
2023-01-28T20:59:05.307Z,100487.73
2023-01-28T21:00:10.083Z,100483.34
2023-01-28T21:02:28.829Z,100479.96
2023-01-28T21:03:31.402Z,100479.84
2023-01-28T21:04:33.475Z,100485.02
2023-01-28T21:05:35.370Z,100483.30
2023-01-28T21:06:38.911Z,100485.95
2023-01-28T21:07:41.673Z,100480.67
2023-01-28T21:08:45.617Z,100483.33
2023-01-28T21:09:47.543Z,100487.62
2023-01-28T21:10:49.644Z,100487.61
2023-01-28T21:11:51.632Z,100491.80
2023-01-28T21:12:53.507Z,100487.61
2023-01-28T21:13:55.794Z,100485.02
2023-01-28T21:14:58.045Z,100485.89
2023-01-28T21:16:00.771Z,100481.45
2023-01-28T21:17:02.834Z,100479.77
2023-01-28T21:18:06.418Z,100483.19
2023-01-28T21:19:08.342Z,100484.94
2023-01-28T21:20:13.014Z,100474.60
2023-01-28T21:21:20.979Z,100483.32
2023-01-28T21:22:23.252Z,100495.38
2023-01-28T21:23:26.015Z,100480.63
2023-01-28T21:24:28.211Z,100492.73
2023-01-28T21:25:31.940Z,100488.45
2023-01-28T21:26:33.946Z,100478.80
2023-01-28T21:27:35.871Z,100478.80
2023-01-28T21:28:37.952Z,100484.05
2023-01-28T21:29:40.387Z,100484.86
2023-01-28T21:30:42.673Z,100489.18
2023-01-28T21:31:47.231Z,100481.45
2023-01-28T21:32:49.377Z,100485.72
2023-01-28T21:33:53.441Z,100484.84
2023-01-28T21:34:55.459Z,100488.25
2023-01-28T21:35:57.851Z,100486.53
2023-01-28T21:36:59.871Z,100486.56
2023-01-28T21:38:01.759Z,100483.07
2023-01-28T21:39:04.739Z,100483.95
2023-01-28T21:40:08.679Z,100480.39
2023-01-28T21:41:10.937Z,100481.36
2023-01-28T21:42:12.945Z,100487.28
2023-01-28T21:43:14.859Z,100481.06
2023-01-28T21:44:16.846Z,100484.66
2023-01-28T21:45:18.814Z,100494.08
2023-01-28T21:46:22.301Z,100483.80
2023-01-28T21:47:25.513Z,100488.02
2023-01-28T21:48:27.879Z,100488.91
2023-01-28T21:49:29.881Z,100486.32
2023-01-28T21:50:32.047Z,100493.33
2023-01-28T21:51:35.592Z,100491.55
2023-01-28T21:52:37.866Z,100489.83
2023-01-28T21:53:41.608Z,100489.83
2023-01-28T21:54:43.759Z,100492.47
2023-01-28T21:55:47.734Z,100486.25
2023-01-28T21:56:50.706Z,100482.84
2023-01-28T21:57:52.687Z,100487.26
2023-01-28T21:58:54.584Z,100484.75
2023-01-28T21:59:56.499Z,100489.00
2023-01-28T22:00:58.486Z,100483.83
2023-01-28T22:02:06.550Z,100488.12
2023-01-28T22:03:08.666Z,100495.00
2023-01-28T22:04:11.811Z,100488.16
2023-01-28T22:05:13.992Z,100487.26
2023-01-28T22:06:16.331Z,100486.27
2023-01-28T22:07:19.189Z,100488.08
2023-01-28T22:08:21.715Z,100482.07
2023-01-28T22:09:24.291Z,100486.39
2023-01-28T22:10:26.272Z,100494.13
2023-01-28T22:11:28.497Z,100486.41
2023-01-28T22:12:30.381Z,100491.61
2023-01-28T22:13:33.004Z,100488.12
2023-01-28T22:14:36.753Z,100484.66
2023-01-28T22:15:38.904Z,100493.29
2023-01-28T22:16:41.516Z,100492.44
2023-01-28T22:17:43.461Z,100484.66
2023-01-28T22:18:45.483Z,100493.25
2023-01-28T22:19:47.387Z,100489.78
2023-01-28T22:21:06.150Z,100487.24
2023-01-28T22:22:08.258Z,100489.00
2023-01-28T22:23:10.231Z,100487.26
2023-01-28T22:24:16.013Z,100489.83
2023-01-28T22:25:18.101Z,100474.16
2023-01-28T22:26:20.217Z,100479.44
2023-01-28T22:27:22.091Z,100478.50
2023-01-28T22:28:25.554Z,100469.85
2023-01-28T22:29:27.471Z,100470.66
2023-01-28T22:30:29.894Z,100466.41
2023-01-28T22:31:32.922Z,100473.20
2023-01-28T22:32:36.015Z,100473.15
2023-01-28T22:33:38.530Z,100472.26
2023-01-28T22:34:40.447Z,100467.98
2023-01-28T22:35:42.750Z,100473.19
2023-01-28T22:36:45.985Z,100471.51
2023-01-28T22:37:47.874Z,100472.30
2023-01-28T22:38:50.044Z,100470.66
2023-01-28T22:39:53.425Z,100469.69
2023-01-28T22:41:04.724Z,100467.13
2023-01-28T22:42:06.654Z,100472.26
2023-01-28T22:43:08.539Z,100465.33
2023-01-28T22:44:10.752Z,100469.62
2023-01-28T22:45:12.935Z,100468.65
2023-01-28T22:46:15.647Z,100459.25
2023-01-28T22:47:17.690Z,100462.58
2023-01-28T22:48:19.692Z,100461.88
2023-01-28T22:49:21.693Z,100467.80
2023-01-28T22:50:23.882Z,100461.84
2023-01-28T22:51:28.448Z,100466.92
2023-01-28T22:52:30.350Z,100458.31
2023-01-28T22:53:34.852Z,100468.61
2023-01-28T22:54:36.790Z,100464.22
2023-01-28T22:55:38.710Z,100464.41
2023-01-28T22:56:41.308Z,100459.16
2023-01-28T22:57:43.193Z,100458.28
2023-01-28T22:58:45.462Z,100461.64
2023-01-28T22:59:59.540Z,100461.66
2023-01-28T23:00:51.769Z,100460.61
2023-01-28T23:01:53.720Z,100467.56
2023-01-28T23:02:55.813Z,100463.33
2023-01-28T23:03:58.515Z,100450.45
2023-01-28T23:05:00.384Z,100469.30
2023-01-28T23:06:04.163Z,100459.84
2023-01-28T23:07:06.075Z,100461.58
2023-01-28T23:08:09.359Z,100459.04
2023-01-28T23:09:11.295Z,100462.44
2023-01-28T23:10:13.943Z,100464.19
2023-01-28T23:11:16.815Z,100456.33
2023-01-28T23:12:18.912Z,100457.25
2023-01-28T23:13:21.892Z,100469.30
2023-01-28T23:14:23.778Z,100465.88
2023-01-28T23:15:25.644Z,100466.70
2023-01-28T23:16:29.137Z,100461.35
2023-01-28T23:17:31.136Z,100463.98
2023-01-28T23:18:34.187Z,100462.27
2023-01-28T23:19:36.662Z,100456.91
2023-01-28T23:20:39.880Z,100455.29
2023-01-28T23:21:41.878Z,100446.80
2023-01-28T23:22:44.142Z,100450.27
2023-01-28T23:23:46.411Z,100443.38
2023-01-28T23:24:48.821Z,100443.44
2023-01-28T23:25:50.846Z,100439.06
2023-01-28T23:26:55.958Z,100440.81
2023-01-28T23:27:58.184Z,100441.52
2023-01-28T23:29:00.099Z,100447.59
2023-01-28T23:30:03.667Z,100450.16
2023-01-28T23:31:05.992Z,100456.17
2023-01-28T23:32:09.726Z,100452.70
2023-01-28T23:33:13.398Z,100450.92
2023-01-28T23:34:16.417Z,100455.42
2023-01-28T23:35:19.763Z,100446.87
2023-01-28T23:36:21.876Z,100447.63
2023-01-28T23:37:23.768Z,100439.94
2023-01-28T23:38:25.653Z,100445.02
2023-01-28T23:39:27.990Z,100437.27
2023-01-28T23:40:30.079Z,100440.59
2023-01-28T23:41:31.950Z,100438.11
2023-01-28T23:42:34.355Z,100437.30
2023-01-28T23:43:36.494Z,100439.78
2023-01-28T23:44:38.487Z,100438.89
2023-01-28T23:45:41.027Z,100433.78
2023-01-28T23:46:43.145Z,100438.13
2023-01-28T23:47:45.341Z,100426.94
2023-01-28T23:48:48.047Z,100433.84
2023-01-28T23:49:50.067Z,100432.97
2023-01-28T23:50:55.433Z,100434.66
2023-01-28T23:51:57.591Z,100437.25
